sensor_id;sensor_type;location;lat;lon;timestamp;P1;durP1;ratioP1;P2;durP2;ratioP2
1957;SDS011;979;51.076;13.748;2022-11-24T00:01:00;17.20;;;16.80;;
1957;SDS011;979;51.076;13.748;2022-11-24T00:03:30;16.60;;;16.20;;
1957;SDS011;979;51.076;13.748;2022-11-24T00:06:05;16.57;;;16.17;;
1957;SDS011;979;51.076;13.748;2022-11-24T00:08:46;17.73;;;17.33;;
1957;SDS011;979;51.076;13.748;2022-11-24T00:11:20;17.03;;;16.63;;
1957;SDS011;979;51.076;13.748;2022-11-24T00:14:02;20.03;;;19.33;;
1957;SDS011;979;51.076;13.748;2022-11-24T00:16:35;38.97;;;36.83;;
1957;SDS011;979;51.076;13.748;2022-11-24T00:19:08;19.20;;;18.70;;
1957;SDS011;979;51.076;13.748;2022-11-24T00:21:44;17.37;;;16.97;;
1957;SDS011;979;51.076;13.748;2022-11-24T00:24:13;17.43;;;17.03;;
1957;SDS011;979;51.076;13.748;2022-11-24T00:26:43;18.07;;;17.57;;
1957;SDS011;979;51.076;13.748;2022-11-24T00:33:36;17.60;;;17.20;;
1957;SDS011;979;51.076;13.748;2022-11-24T00:36:06;17.80;;;17.40;;
1957;SDS011;979;51.076;13.748;2022-11-24T00:38:34;18.00;;;17.50;;
1957;SDS011;979;51.076;13.748;2022-11-24T00:41:05;21.50;;;20.70;;
1957;SDS011;979;51.076;13.748;2022-11-24T00:43:40;18.40;;;17.90;;
1957;SDS011;979;51.076;13.748;2022-11-24T00:46:16;17.77;;;17.37;;
1957;SDS011;979;51.076;13.748;2022-11-24T00:48:48;17.90;;;17.50;;
1957;SDS011;979;51.076;13.748;2022-11-24T00:51:21;17.80;;;17.30;;
1957;SDS011;979;51.076;13.748;2022-11-24T00:53:58;17.50;;;17.10;;
1957;SDS011;979;51.076;13.748;2022-11-24T00:56:40;17.23;;;16.83;;
1957;SDS011;979;51.076;13.748;2022-11-24T00:59:19;17.27;;;16.87;;
1957;SDS011;979;51.076;13.748;2022-11-24T01:01:55;20.67;;;20.07;;
1957;SDS011;979;51.076;13.748;2022-11-24T01:04:25;17.50;;;17.10;;
1957;SDS011;979;51.076;13.748;2022-11-24T01:06:55;18.00;;;17.50;;
1957;SDS011;979;51.076;13.748;2022-11-24T01:09:23;17.80;;;17.30;;
1957;SDS011;979;51.076;13.748;2022-11-24T01:11:54;17.80;;;17.40;;
1957;SDS011;979;51.076;13.748;2022-11-24T01:14:32;17.40;;;17.00;;
1957;SDS011;979;51.076;13.748;2022-11-24T01:17:00;18.30;;;17.80;;
1957;SDS011;979;51.076;13.748;2022-11-24T01:19:31;17.93;;;17.43;;
1957;SDS011;979;51.076;13.748;2022-11-24T01:22:01;20.10;;;18.90;;
1957;SDS011;979;51.076;13.748;2022-11-24T01:24:32;17.83;;;17.43;;
1957;SDS011;979;51.076;13.748;2022-11-24T01:27:05;17.90;;;17.40;;
1957;SDS011;979;51.076;13.748;2022-11-24T01:29:36;19.50;;;19.00;;
1957;SDS011;979;51.076;13.748;2022-11-24T01:32:21;17.93;;;17.43;;
1957;SDS011;979;51.076;13.748;2022-11-24T01:35:05;18.40;;;17.90;;
1957;SDS011;979;51.076;13.748;2022-11-24T01:37:34;18.57;;;18.07;;
1957;SDS011;979;51.076;13.748;2022-11-24T01:40:05;18.43;;;17.93;;
1957;SDS011;979;51.076;13.748;2022-11-24T01:42:47;17.70;;;17.30;;
1957;SDS011;979;51.076;13.748;2022-11-24T01:45:39;17.90;;;17.40;;
1957;SDS011;979;51.076;13.748;2022-11-24T01:48:24;21.13;;;20.50;;
1957;SDS011;979;51.076;13.748;2022-11-24T01:51:07;18.93;;;18.43;;
1957;SDS011;979;51.076;13.748;2022-11-24T01:54:10;19.50;;;19.00;;
1957;SDS011;979;51.076;13.748;2022-11-24T01:56:47;19.57;;;18.97;;
1957;SDS011;979;51.076;13.748;2022-11-24T01:59:18;20.17;;;19.57;;
1957;SDS011;979;51.076;13.748;2022-11-24T02:01:53;18.60;;;18.10;;
1957;SDS011;979;51.076;13.748;2022-11-24T02:04:26;18.40;;;17.90;;
1957;SDS011;979;51.076;13.748;2022-11-24T02:07:00;17.90;;;17.40;;
1957;SDS011;979;51.076;13.748;2022-11-24T02:09:35;18.33;;;17.83;;
1957;SDS011;979;51.076;13.748;2022-11-24T02:12:10;17.77;;;17.27;;
1957;SDS011;979;51.076;13.748;2022-11-24T02:14:43;18.37;;;17.87;;
1957;SDS011;979;51.076;13.748;2022-11-24T02:17:17;17.50;;;17.00;;
1957;SDS011;979;51.076;13.748;2022-11-24T02:19:51;18.00;;;17.50;;
1957;SDS011;979;51.076;13.748;2022-11-24T02:22:25;17.20;;;16.80;;
1957;SDS011;979;51.076;13.748;2022-11-24T02:25:05;17.40;;;17.00;;
1957;SDS011;979;51.076;13.748;2022-11-24T02:27:44;19.40;;;18.90;;
1957;SDS011;979;51.076;13.748;2022-11-24T02:30:19;18.20;;;17.70;;
1957;SDS011;979;51.076;13.748;2022-11-24T02:32:48;18.43;;;17.93;;
1957;SDS011;979;51.076;13.748;2022-11-24T02:35:20;17.13;;;16.73;;
1957;SDS011;979;51.076;13.748;2022-11-24T02:37:48;17.50;;;17.10;;
1957;SDS011;979;51.076;13.748;2022-11-24T02:40:18;17.50;;;17.10;;
1957;SDS011;979;51.076;13.748;2022-11-24T02:43:06;18.83;;;18.33;;
1957;SDS011;979;51.076;13.748;2022-11-24T02:45:46;24.67;;;23.97;;
1957;SDS011;979;51.076;13.748;2022-11-24T02:48:14;17.93;;;17.43;;
1957;SDS011;979;51.076;13.748;2022-11-24T02:50:43;17.80;;;17.30;;
1957;SDS011;979;51.076;13.748;2022-11-24T02:53:11;17.00;;;16.60;;
1957;SDS011;979;51.076;13.748;2022-11-24T02:55:43;17.83;;;17.33;;
1957;SDS011;979;51.076;13.748;2022-11-24T02:58:13;19.20;;;18.60;;
1957;SDS011;979;51.076;13.748;2022-11-24T03:00:42;18.27;;;17.77;;
1957;SDS011;979;51.076;13.748;2022-11-24T03:03:11;18.10;;;17.60;;
1957;SDS011;979;51.076;13.748;2022-11-24T03:05:42;17.70;;;17.20;;
1957;SDS011;979;51.076;13.748;2022-11-24T03:08:10;17.67;;;17.20;;
1957;SDS011;979;51.076;13.748;2022-11-24T03:10:39;17.50;;;17.10;;
1957;SDS011;979;51.076;13.748;2022-11-24T03:13:08;16.83;;;16.43;;
1957;SDS011;979;51.076;13.748;2022-11-24T03:15:37;16.80;;;16.40;;
1957;SDS011;979;51.076;13.748;2022-11-24T03:18:06;17.03;;;16.63;;
1957;SDS011;979;51.076;13.748;2022-11-24T03:20:41;16.93;;;16.53;;
1957;SDS011;979;51.076;13.748;2022-11-24T03:23:10;16.77;;;16.37;;
1957;SDS011;979;51.076;13.748;2022-11-24T03:25:38;16.80;;;16.40;;
1957;SDS011;979;51.076;13.748;2022-11-24T03:28:07;17.60;;;17.20;;
1957;SDS011;979;51.076;13.748;2022-11-24T03:30:35;16.70;;;16.30;;
1957;SDS011;979;51.076;13.748;2022-11-24T03:33:11;16.60;;;16.20;;
1957;SDS011;979;51.076;13.748;2022-11-24T03:35:43;16.43;;;16.03;;
1957;SDS011;979;51.076;13.748;2022-11-24T03:38:15;17.00;;;16.60;;
1957;SDS011;979;51.076;13.748;2022-11-24T03:40:46;16.27;;;15.87;;
1957;SDS011;979;51.076;13.748;2022-11-24T03:43:41;17.33;;;16.93;;
1957;SDS011;979;51.076;13.748;2022-11-24T03:46:10;16.67;;;16.27;;
1957;SDS011;979;51.076;13.748;2022-11-24T03:48:46;16.90;;;16.50;;
1957;SDS011;979;51.076;13.748;2022-11-24T03:51:15;17.20;;;16.80;;
1957;SDS011;979;51.076;13.748;2022-11-24T03:53:43;17.60;;;17.10;;
1957;SDS011;979;51.076;13.748;2022-11-24T03:56:12;16.67;;;16.27;;
1957;SDS011;979;51.076;13.748;2022-11-24T03:58:40;16.63;;;16.23;;
1957;SDS011;979;51.076;13.748;2022-11-24T04:01:09;17.00;;;16.60;;
1957;SDS011;979;51.076;13.748;2022-11-24T04:03:39;18.90;;;18.40;;
1957;SDS011;979;51.076;13.748;2022-11-24T04:06:09;16.50;;;16.10;;
1957;SDS011;979;51.076;13.748;2022-11-24T04:08:40;16.40;;;16.00;;
1957;SDS011;979;51.076;13.748;2022-11-24T04:11:19;15.70;;;15.30;;
1957;SDS011;979;51.076;13.748;2022-11-24T04:14:07;17.83;;;17.33;;
1957;SDS011;979;51.076;13.748;2022-11-24T04:16:42;16.70;;;16.30;;
1957;SDS011;979;51.076;13.748;2022-11-24T04:19:17;16.77;;;16.37;;
1957;SDS011;979;51.076;13.748;2022-11-24T04:21:50;17.30;;;16.90;;
1957;SDS011;979;51.076;13.748;2022-11-24T04:24:18;17.30;;;16.90;;
1957;SDS011;979;51.076;13.748;2022-11-24T04:26:47;16.57;;;16.17;;
1957;SDS011;979;51.076;13.748;2022-11-24T04:29:16;17.20;;;16.80;;
1957;SDS011;979;51.076;13.748;2022-11-24T04:31:50;16.97;;;16.57;;
1957;SDS011;979;51.076;13.748;2022-11-24T04:34:32;16.30;;;15.90;;
1957;SDS011;979;51.076;13.748;2022-11-24T04:37:03;16.30;;;15.90;;
1957;SDS011;979;51.076;13.748;2022-11-24T04:39:33;15.33;;;15.03;;
1957;SDS011;979;51.076;13.748;2022-11-24T04:42:02;15.90;;;15.50;;
1957;SDS011;979;51.076;13.748;2022-11-24T04:44:40;15.13;;;14.83;;
1957;SDS011;979;51.076;13.748;2022-11-24T04:47:11;15.93;;;15.53;;
1957;SDS011;979;51.076;13.748;2022-11-24T04:49:45;15.60;;;15.30;;
1957;SDS011;979;51.076;13.748;2022-11-24T04:52:15;15.70;;;15.30;;
1957;SDS011;979;51.076;13.748;2022-11-24T04:54:48;15.77;;;15.37;;
1957;SDS011;979;51.076;13.748;2022-11-24T04:57:25;15.10;;;14.80;;
1957;SDS011;979;51.076;13.748;2022-11-24T04:59:54;16.67;;;16.27;;
1957;SDS011;979;51.076;13.748;2022-11-24T05:02:29;15.90;;;15.50;;
1957;SDS011;979;51.076;13.748;2022-11-24T05:04:59;18.30;;;17.37;;
1957;SDS011;979;51.076;13.748;2022-11-24T05:07:37;14.67;;;14.37;;
1957;SDS011;979;51.076;13.748;2022-11-24T05:10:06;14.97;;;14.67;;
1957;SDS011;979;51.076;13.748;2022-11-24T05:12:56;14.13;;;13.83;;
1957;SDS011;979;51.076;13.748;2022-11-24T05:15:25;17.53;;;17.03;;
1957;SDS011;979;51.076;13.748;2022-11-24T05:17:57;15.00;;;14.70;;
1957;SDS011;979;51.076;13.748;2022-11-24T05:20:27;15.30;;;14.90;;
1957;SDS011;979;51.076;13.748;2022-11-24T05:23:01;18.30;;;17.70;;
1957;SDS011;979;51.076;13.748;2022-11-24T05:25:33;15.17;;;14.77;;
1957;SDS011;979;51.076;13.748;2022-11-24T05:28:03;15.40;;;15.00;;
1957;SDS011;979;51.076;13.748;2022-11-24T05:30:40;14.90;;;14.60;;
1957;SDS011;979;51.076;13.748;2022-11-24T05:33:19;14.70;;;14.40;;
1957;SDS011;979;51.076;13.748;2022-11-24T05:35:50;14.30;;;14.00;;
1957;SDS011;979;51.076;13.748;2022-11-24T05:38:22;14.30;;;14.00;;
1957;SDS011;979;51.076;13.748;2022-11-24T05:40:50;14.40;;;14.10;;
1957;SDS011;979;51.076;13.748;2022-11-24T05:43:19;15.23;;;14.93;;
1957;SDS011;979;51.076;13.748;2022-11-24T05:45:47;14.90;;;14.60;;
1957;SDS011;979;51.076;13.748;2022-11-24T05:51:44;19.80;;;18.87;;
1957;SDS011;979;51.076;13.748;2022-11-24T05:54:26;15.23;;;14.93;;
1957;SDS011;979;51.076;13.748;2022-11-24T05:57:16;13.57;;;13.27;;
1957;SDS011;979;51.076;13.748;2022-11-24T05:59:53;16.83;;;16.40;;
1957;SDS011;979;51.076;13.748;2022-11-24T06:02:51;14.30;;;14.00;;
1957;SDS011;979;51.076;13.748;2022-11-24T06:05:19;16.47;;;16.07;;
1957;SDS011;979;51.076;13.748;2022-11-24T06:07:53;14.87;;;14.57;;
1957;SDS011;979;51.076;13.748;2022-11-24T06:10:25;14.73;;;14.43;;
1957;SDS011;979;51.076;13.748;2022-11-24T06:13:04;14.30;;;14.00;;
1957;SDS011;979;51.076;13.748;2022-11-24T06:15:49;14.50;;;14.20;;
1957;SDS011;979;51.076;13.748;2022-11-24T06:18:20;16.13;;;15.73;;
1957;SDS011;979;51.076;13.748;2022-11-24T06:20:54;14.40;;;14.10;;
1957;SDS011;979;51.076;13.748;2022-11-24T06:23:43;14.33;;;14.03;;
1957;SDS011;979;51.076;13.748;2022-11-24T06:29:10;14.00;;;13.70;;
1957;SDS011;979;51.076;13.748;2022-11-24T06:31:42;14.20;;;13.90;;
1957;SDS011;979;51.076;13.748;2022-11-24T06:34:19;14.10;;;13.80;;
1957;SDS011;979;51.076;13.748;2022-11-24T06:36:52;14.63;;;14.33;;
1957;SDS011;979;51.076;13.748;2022-11-24T06:39:27;15.13;;;14.83;;
1957;SDS011;979;51.076;13.748;2022-11-24T06:42:22;15.40;;;15.00;;
1957;SDS011;979;51.076;13.748;2022-11-24T06:45:07;15.27;;;14.90;;
1957;SDS011;979;51.076;13.748;2022-11-24T06:47:54;15.20;;;14.80;;
1957;SDS011;979;51.076;13.748;2022-11-24T06:50:36;15.30;;;14.90;;
1957;SDS011;979;51.076;13.748;2022-11-24T06:53:07;15.30;;;15.00;;
1957;SDS011;979;51.076;13.748;2022-11-24T06:55:51;16.27;;;15.87;;
1957;SDS011;979;51.076;13.748;2022-11-24T06:58:26;13.93;;;13.63;;
1957;SDS011;979;51.076;13.748;2022-11-24T07:01:08;15.33;;;14.93;;
1957;SDS011;979;51.076;13.748;2022-11-24T07:03:53;15.30;;;14.90;;
1957;SDS011;979;51.076;13.748;2022-11-24T07:06:50;15.40;;;15.00;;
1957;SDS011;979;51.076;13.748;2022-11-24T07:09:24;15.27;;;14.87;;
1957;SDS011;979;51.076;13.748;2022-11-24T07:11:59;15.00;;;14.60;;
1957;SDS011;979;51.076;13.748;2022-11-24T07:15:00;15.60;;;15.20;;
1957;SDS011;979;51.076;13.748;2022-11-24T07:17:49;15.30;;;14.90;;
1957;SDS011;979;51.076;13.748;2022-11-24T07:20:44;18.20;;;17.80;;
1957;SDS011;979;51.076;13.748;2022-11-24T07:23:39;14.47;;;14.17;;
1957;SDS011;979;51.076;13.748;2022-11-24T07:26:37;15.40;;;15.00;;
1957;SDS011;979;51.076;13.748;2022-11-24T07:29:39;20.53;;;19.83;;
1957;SDS011;979;51.076;13.748;2022-11-24T07:35:20;16.93;;;16.10;;
1957;SDS011;979;51.076;13.748;2022-11-24T07:38:02;15.60;;;15.23;;
1957;SDS011;979;51.076;13.748;2022-11-24T07:40:45;14.50;;;14.20;;
1957;SDS011;979;51.076;13.748;2022-11-24T07:43:20;15.13;;;14.83;;
1957;SDS011;979;51.076;13.748;2022-11-24T07:46:06;15.10;;;14.80;;
1957;SDS011;979;51.076;13.748;2022-11-24T07:48:52;15.07;;;14.77;;
1957;SDS011;979;51.076;13.748;2022-11-24T07:51:41;18.07;;;17.10;;
1957;SDS011;979;51.076;13.748;2022-11-24T07:54:16;14.50;;;14.20;;
1957;SDS011;979;51.076;13.748;2022-11-24T07:56:51;13.90;;;13.60;;
1957;SDS011;979;51.076;13.748;2022-11-24T07:59:38;14.20;;;13.90;;
1957;SDS011;979;51.076;13.748;2022-11-24T08:02:17;15.43;;;15.03;;
1957;SDS011;979;51.076;13.748;2022-11-24T08:05:12;14.40;;;14.10;;
1957;SDS011;979;51.076;13.748;2022-11-24T08:07:49;37.13;;;35.93;;
1957;SDS011;979;51.076;13.748;2022-11-24T08:10:18;15.10;;;14.70;;
1957;SDS011;979;51.076;13.748;2022-11-24T08:12:47;14.70;;;14.40;;
1957;SDS011;979;51.076;13.748;2022-11-24T08:15:15;15.17;;;14.87;;
1957;SDS011;979;51.076;13.748;2022-11-24T08:17:47;14.80;;;14.50;;
1957;SDS011;979;51.076;13.748;2022-11-24T08:20:17;15.20;;;14.90;;
1957;SDS011;979;51.076;13.748;2022-11-24T08:22:45;16.50;;;15.90;;
1957;SDS011;979;51.076;13.748;2022-11-24T08:25:14;15.83;;;15.43;;
1957;SDS011;979;51.076;13.748;2022-11-24T08:27:44;15.13;;;14.83;;
1957;SDS011;979;51.076;13.748;2022-11-24T08:30:13;15.60;;;15.20;;
1957;SDS011;979;51.076;13.748;2022-11-24T08:32:41;15.00;;;14.70;;
1957;SDS011;979;51.076;13.748;2022-11-24T08:35:10;15.10;;;14.70;;
1957;SDS011;979;51.076;13.748;2022-11-24T08:37:43;15.20;;;14.80;;
1957;SDS011;979;51.076;13.748;2022-11-24T08:40:11;15.27;;;14.90;;
1957;SDS011;979;51.076;13.748;2022-11-24T08:42:40;15.97;;;15.57;;
1957;SDS011;979;51.076;13.748;2022-11-24T08:45:15;17.23;;;16.53;;
1957;SDS011;979;51.076;13.748;2022-11-24T08:47:50;15.23;;;14.93;;
1957;SDS011;979;51.076;13.748;2022-11-24T08:50:19;16.00;;;15.60;;
1957;SDS011;979;51.076;13.748;2022-11-24T08:52:49;14.90;;;14.60;;
1957;SDS011;979;51.076;13.748;2022-11-24T08:55:18;16.00;;;15.60;;
1957;SDS011;979;51.076;13.748;2022-11-24T08:57:50;18.27;;;17.63;;
1957;SDS011;979;51.076;13.748;2022-11-24T09:00:18;15.87;;;15.47;;
1957;SDS011;979;51.076;13.748;2022-11-24T09:02:55;15.70;;;15.30;;
1957;SDS011;979;51.076;13.748;2022-11-24T09:05:26;16.00;;;15.60;;
1957;SDS011;979;51.076;13.748;2022-11-24T09:08:17;15.30;;;15.00;;
1957;SDS011;979;51.076;13.748;2022-11-24T09:10:46;15.50;;;15.10;;
1957;SDS011;979;51.076;13.748;2022-11-24T09:13:15;16.17;;;15.77;;
1957;SDS011;979;51.076;13.748;2022-11-24T09:15:46;17.67;;;15.87;;
1957;SDS011;979;51.076;13.748;2022-11-24T09:18:15;17.10;;;16.70;;
1957;SDS011;979;51.076;13.748;2022-11-24T09:20:43;15.17;;;14.87;;
1957;SDS011;979;51.076;13.748;2022-11-24T09:23:12;19.03;;;18.53;;
1957;SDS011;979;51.076;13.748;2022-11-24T09:25:42;18.73;;;18.13;;
1957;SDS011;979;51.076;13.748;2022-11-24T09:28:13;15.80;;;15.40;;
1957;SDS011;979;51.076;13.748;2022-11-24T09:30:41;14.97;;;14.67;;
1957;SDS011;979;51.076;13.748;2022-11-24T09:33:10;15.80;;;15.40;;
1957;SDS011;979;51.076;13.748;2022-11-24T09:35:38;15.60;;;15.20;;
1957;SDS011;979;51.076;13.748;2022-11-24T09:38:07;15.70;;;15.30;;
1957;SDS011;979;51.076;13.748;2022-11-24T09:40:38;15.80;;;15.40;;
1957;SDS011;979;51.076;13.748;2022-11-24T09:43:10;15.90;;;15.50;;
1957;SDS011;979;51.076;13.748;2022-11-24T09:45:54;15.90;;;15.50;;
1957;SDS011;979;51.076;13.748;2022-11-24T09:48:32;20.57;;;19.83;;
1957;SDS011;979;51.076;13.748;2022-11-24T09:51:07;16.43;;;16.03;;
1957;SDS011;979;51.076;13.748;2022-11-24T09:53:41;18.43;;;17.33;;
1957;SDS011;979;51.076;13.748;2022-11-24T09:56:14;17.80;;;17.20;;
1957;SDS011;979;51.076;13.748;2022-11-24T09:58:52;15.00;;;14.70;;
1957;SDS011;979;51.076;13.748;2022-11-24T10:01:25;15.53;;;15.20;;
1957;SDS011;979;51.076;13.748;2022-11-24T10:03:56;15.30;;;15.00;;
1957;SDS011;979;51.076;13.748;2022-11-24T10:06:34;14.70;;;14.40;;
1957;SDS011;979;51.076;13.748;2022-11-24T10:09:10;14.80;;;14.50;;
1957;SDS011;979;51.076;13.748;2022-11-24T10:11:50;16.00;;;15.60;;
1957;SDS011;979;51.076;13.748;2022-11-24T10:14:34;16.63;;;16.23;;
1957;SDS011;979;51.076;13.748;2022-11-24T10:17:18;15.90;;;15.50;;
1957;SDS011;979;51.076;13.748;2022-11-24T10:20:01;17.60;;;17.20;;
1957;SDS011;979;51.076;13.748;2022-11-24T10:22:38;15.90;;;15.50;;
1957;SDS011;979;51.076;13.748;2022-11-24T10:25:18;17.43;;;16.63;;
1957;SDS011;979;51.076;13.748;2022-11-24T10:27:53;15.73;;;15.33;;
1957;SDS011;979;51.076;13.748;2022-11-24T10:30:27;22.50;;;21.07;;
1957;SDS011;979;51.076;13.748;2022-11-24T10:32:57;26.87;;;24.10;;
1957;SDS011;979;51.076;13.748;2022-11-24T10:35:33;25.53;;;23.60;;
1957;SDS011;979;51.076;13.748;2022-11-24T10:38:06;29.30;;;26.70;;
1957;SDS011;979;51.076;13.748;2022-11-24T10:40:46;29.07;;;26.47;;
1957;SDS011;979;51.076;13.748;2022-11-24T10:43:31;29.07;;;26.33;;
1957;SDS011;979;51.076;13.748;2022-11-24T10:46:07;30.10;;;27.27;;
1957;SDS011;979;51.076;13.748;2022-11-24T10:48:39;27.23;;;24.90;;
1957;SDS011;979;51.076;13.748;2022-11-24T10:51:27;28.53;;;25.73;;
1957;SDS011;979;51.076;13.748;2022-11-24T10:54:06;28.40;;;25.60;;
1957;SDS011;979;51.076;13.748;2022-11-24T10:56:44;28.77;;;26.07;;
1957;SDS011;979;51.076;13.748;2022-11-24T10:59:20;28.00;;;25.17;;
1957;SDS011;979;51.076;13.748;2022-11-24T11:01:57;32.67;;;28.97;;
1957;SDS011;979;51.076;13.748;2022-11-24T11:04:26;29.93;;;27.10;;
1957;SDS011;979;51.076;13.748;2022-11-24T11:07:06;28.50;;;26.00;;
1957;SDS011;979;51.076;13.748;2022-11-24T11:09:37;30.20;;;27.30;;
1957;SDS011;979;51.076;13.748;2022-11-24T11:12:09;30.30;;;27.60;;
1957;SDS011;979;51.076;13.748;2022-11-24T11:17:50;29.73;;;26.93;;
1957;SDS011;979;51.076;13.748;2022-11-24T11:20:25;31.70;;;28.67;;
1957;SDS011;979;51.076;13.748;2022-11-24T11:22:55;31.33;;;28.30;;
1957;SDS011;979;51.076;13.748;2022-11-24T11:25:27;31.27;;;28.10;;
1957;SDS011;979;51.076;13.748;2022-11-24T11:28:17;27.80;;;25.43;;
1957;SDS011;979;51.076;13.748;2022-11-24T11:30:55;30.20;;;27.83;;
1957;SDS011;979;51.076;13.748;2022-11-24T11:33:58;30.10;;;27.23;;
1957;SDS011;979;51.076;13.748;2022-11-24T11:36:32;26.57;;;24.60;;
1957;SDS011;979;51.076;13.748;2022-11-24T11:39:02;29.37;;;26.37;;
1957;SDS011;979;51.076;13.748;2022-11-24T11:41:32;32.53;;;29.17;;
1957;SDS011;979;51.076;13.748;2022-11-24T11:44:10;29.63;;;27.13;;
1957;SDS011;979;51.076;13.748;2022-11-24T11:46:44;30.00;;;27.40;;
1957;SDS011;979;51.076;13.748;2022-11-24T11:49:14;33.27;;;29.97;;
1957;SDS011;979;51.076;13.748;2022-11-24T11:51:52;30.17;;;27.77;;
1957;SDS011;979;51.076;13.748;2022-11-24T11:54:42;30.07;;;27.07;;
1957;SDS011;979;51.076;13.748;2022-11-24T13:08:06;27.87;;;25.60;;
1957;SDS011;979;51.076;13.748;2022-11-24T13:10:58;30.80;;;27.90;;
1957;SDS011;979;51.076;13.748;2022-11-24T13:15:13;37.10;;;26.83;;
1957;SDS011;979;51.076;13.748;2022-11-24T13:21:46;29.37;;;26.47;;
1957;SDS011;979;51.076;13.748;2022-11-24T14:07:31;33.13;;;30.03;;
1957;SDS011;979;51.076;13.748;2022-11-24T14:13:20;30.63;;;28.03;;
1957;SDS011;979;51.076;13.748;2022-11-24T14:16:46;33.77;;;30.57;;
1957;SDS011;979;51.076;13.748;2022-11-24T14:20:21;35.07;;;32.07;;
1957;SDS011;979;51.076;13.748;2022-11-24T14:23:41;32.27;;;29.40;;
1957;SDS011;979;51.076;13.748;2022-11-24T14:30:22;31.80;;;29.10;;
1957;SDS011;979;51.076;13.748;2022-11-24T15:06:37;33.13;;;29.83;;
1957;SDS011;979;51.076;13.748;2022-11-24T15:13:52;34.80;;;31.20;;
1957;SDS011;979;51.076;13.748;2022-11-24T15:17:25;33.83;;;30.33;;
1957;SDS011;979;51.076;13.748;2022-11-24T15:27:12;35.87;;;30.90;;
1957;SDS011;979;51.076;13.748;2022-11-24T15:30:04;34.93;;;31.13;;
1957;SDS011;979;51.076;13.748;2022-11-24T15:33:17;37.13;;;30.87;;
1957;SDS011;979;51.076;13.748;2022-11-24T15:36:22;37.90;;;33.90;;
1957;SDS011;979;51.076;13.748;2022-11-24T15:42:28;37.17;;;33.40;;
1957;SDS011;979;51.076;13.748;2022-11-24T15:45:25;36.80;;;32.80;;
1957;SDS011;979;51.076;13.748;2022-11-24T15:47:54;34.93;;;31.70;;
1957;SDS011;979;51.076;13.748;2022-11-24T15:50:26;56.27;;;38.70;;
1957;SDS011;979;51.076;13.748;2022-11-24T15:52:56;42.00;;;35.83;;
1957;SDS011;979;51.076;13.748;2022-11-24T15:55:28;38.27;;;33.57;;
1957;SDS011;979;51.076;13.748;2022-11-24T15:58:00;36.77;;;32.40;;
1957;SDS011;979;51.076;13.748;2022-11-24T16:00:36;34.33;;;30.90;;
1957;SDS011;979;51.076;13.748;2022-11-24T16:03:25;34.50;;;31.20;;
1957;SDS011;979;51.076;13.748;2022-11-24T16:06:15;35.60;;;31.90;;
1957;SDS011;979;51.076;13.748;2022-11-24T16:08:53;40.23;;;36.10;;
1957;SDS011;979;51.076;13.748;2022-11-24T16:11:36;38.67;;;34.63;;
1957;SDS011;979;51.076;13.748;2022-11-24T16:14:07;42.63;;;35.37;;
1957;SDS011;979;51.076;13.748;2022-11-24T16:16:42;49.23;;;35.53;;
1957;SDS011;979;51.076;13.748;2022-11-24T16:44:59;34.80;;;31.60;;
1957;SDS011;979;51.076;13.748;2022-11-24T16:47:54;39.63;;;35.53;;
1957;SDS011;979;51.076;13.748;2022-11-24T16:50:40;40.67;;;35.80;;
1957;SDS011;979;51.076;13.748;2022-11-24T18:58:35;46.83;;;38.60;;
1957;SDS011;979;51.076;13.748;2022-11-24T19:01:45;44.47;;;39.67;;
1957;SDS011;979;51.076;13.748;2022-11-24T19:05:13;42.53;;;37.73;;
1957;SDS011;979;51.076;13.748;2022-11-24T19:08:30;38.20;;;34.37;;
1957;SDS011;979;51.076;13.748;2022-11-24T19:11:37;52.83;;;42.07;;
1957;SDS011;979;51.076;13.748;2022-11-24T19:14:34;42.13;;;37.53;;
1957;SDS011;979;51.076;13.748;2022-11-24T19:17:51;42.40;;;37.93;;
1957;SDS011;979;51.076;13.748;2022-11-24T22:51:03;25.57;;;22.87;;
1957;SDS011;979;51.076;13.748;2022-11-24T22:54:16;25.60;;;23.17;;
1957;SDS011;979;51.076;13.748;2022-11-24T22:57:44;25.50;;;23.60;;
